Time;durP1;ratioP1;P1;durP2;ratioP2;P2;SDS_P1;SDS_P2;PMS_P1;PMS_P2;Temp;Humidity;BMP_temperature;BMP_pressure;BME280_temperature;BME280_humidity;BME280_pressure;Samples;Min_cycle;Max_cycle;Signal;HPM_P1;HPM_P2
2022/06/27 00:03:44;;;;;;;;;;;26.80;44.50;;;;;;8465534;28;19916;-45
2022/06/27 00:07:44;;;;;;;;;;;26.80;44.40;;;;;;8464891;28;19911;-45
2022/06/27 00:11:45;;;;;;;;;;;26.80;44.50;;;;;;8465585;28;19911;-45
2022/06/27 00:15:45;;;;;;;;;;;26.80;44.50;;;;;;8465046;28;19912;-45
2022/06/27 00:19:45;;;;;;;;;;;26.70;44.50;;;;;;8464391;28;19915;-44
2022/06/27 00:23:46;;;;;;;;;;;26.80;44.60;;;;;;8464787;28;20342;-44
2022/06/27 00:27:46;;;;;;;;;;;26.70;44.60;;;;;;8465494;28;19981;-47
2022/06/27 00:31:47;;;;;;;;;;;26.70;44.60;;;;;;8464024;28;19919;-44
2022/06/27 00:35:49;;;;;;;;;;;26.70;44.60;;;;;;8464393;28;19995;-45
2022/06/27 00:39:50;;;;;;;;;;;26.70;44.60;;;;;;8463842;28;19908;-44
2022/06/27 00:43:50;;;;;;;;;;;26.70;44.60;;;;;;8463764;28;20015;-45
2022/06/27 00:47:51;;;;;;;;;;;26.70;44.60;;;;;;8464463;28;19907;-44
2022/06/27 00:51:51;;;;;;;;;;;26.70;44.60;;;;;;8464127;28;19916;-45
2022/06/27 00:55:52;;;;;;;;;;;26.70;44.60;;;;;;8463441;28;20386;-44
2022/06/27 00:59:53;;;;;;;;;;;26.60;44.60;;;;;;8464139;28;20288;-44
2022/06/27 01:03:53;;;;;;;;;;;26.60;44.60;;;;;;8464024;28;19930;-44
2022/06/27 01:07:54;;;;;;;;;;;26.60;44.70;;;;;;8462663;28;19962;-44
2022/06/27 01:11:54;;;;;;;;;;;26.60;44.70;;;;;;8463471;28;19911;-45
2022/06/27 01:15:55;;;;;;;;;;;26.60;44.70;;;;;;8463737;28;19919;-43
2022/06/27 01:19:55;;;;;;;;;;;26.60;44.60;;;;;;8462954;28;19912;-43
2022/06/27 01:23:56;;;;;;;;;;;26.60;45.20;;;;;;8463285;28;19916;-44
2022/06/27 01:27:56;;;;;;;;;;;26.60;44.60;;;;;;8463403;28;20364;-44
2022/06/27 01:31:57;;;;;;;;;;;26.50;44.60;;;;;;8462729;28;19962;-44
2022/06/27 01:40:16;;;;;;;;;;;26.60;44.70;;;;;;8462757;28;19953;-44
2022/06/27 01:44:17;;;;;;;;;;;26.60;44.70;;;;;;8462993;28;19995;-44
2022/06/27 01:48:18;;;;;;;;;;;26.50;44.60;;;;;;8463159;28;20002;-43
2022/06/27 01:52:19;;;;;;;;;;;26.60;44.70;;;;;;8467131;28;19919;-43
2022/06/27 01:56:19;;;;;;;;;;;26.50;44.60;;;;;;8469718;28;20336;-43
2022/06/27 02:00:20;;;;;;;;;;;26.50;44.60;;;;;;8469622;28;19916;-44
2022/06/27 02:04:21;;;;;;;;;;;26.50;44.60;;;;;;8468938;28;19994;-44
2022/06/27 02:08:22;;;;;;;;;;;26.50;44.60;;;;;;8469872;28;19957;-45
2022/06/27 02:12:23;;;;;;;;;;;26.50;44.60;;;;;;8469236;28;20273;-45
2022/06/27 02:16:24;;;;;;;;;;;26.50;44.60;;;;;;8468540;28;19923;-45
2022/06/27 02:20:24;;;;;;;;;;;26.50;44.60;;;;;;8468729;28;20303;-44
2022/06/27 02:24:25;;;;;;;;;;;26.50;44.60;;;;;;8468684;28;20310;-44
2022/06/27 02:28:27;;;;;;;;;;;26.50;44.60;;;;;;8468385;28;19960;-44
2022/06/27 02:32:30;;;;;;;;;;;26.50;44.60;;;;;;8468379;28;19976;-45
2022/06/27 02:36:32;;;;;;;;;;;26.50;44.60;;;;;;8468573;28;19911;-45
2022/06/27 02:40:33;;;;;;;;;;;26.50;44.60;;;;;;8467652;28;19919;-45
2022/06/27 02:44:33;;;;;;;;;;;26.40;44.60;;;;;;8468001;28;19919;-44
2022/06/27 02:48:35;;;;;;;;;;;26.40;44.60;;;;;;8468244;28;20010;-44
2022/06/27 02:52:41;;;;;;;;;;;26.40;44.60;;;;;;8467233;28;19931;-45
2022/06/27 02:57:10;;;;;;;;;;;26.40;44.60;;;;;;8467698;28;19934;-44
2022/06/27 03:01:12;;;;;;;;;;;26.40;44.60;;;;;;8376907;28;20354;-45
2022/06/27 03:05:13;;;;;;;;;;;26.40;44.60;;;;;;8466559;28;19919;-45
2022/06/27 03:09:13;;;;;;;;;;;26.40;44.60;;;;;;8467305;28;19927;-44
2022/06/27 03:13:14;;;;;;;;;;;26.40;44.60;;;;;;8467370;28;20276;-44
2022/06/27 03:17:14;;;;;;;;;;;26.40;44.60;;;;;;8466462;28;19916;-45
2022/06/27 03:21:17;;;;;;;;;;;26.40;44.60;;;;;;8466689;28;20026;-44
2022/06/27 03:25:18;;;;;;;;;;;26.30;44.60;;;;;;8466554;28;19924;-44
2022/06/27 03:29:18;;;;;;;;;;;26.40;44.60;;;;;;8466636;28;19954;-45
2022/06/27 03:33:19;;;;;;;;;;;26.30;44.60;;;;;;8466713;28;19915;-45
2022/06/27 03:37:19;;;;;;;;;;;26.30;44.60;;;;;;8465956;28;19922;-45
2022/06/27 03:41:20;;;;;;;;;;;26.30;44.60;;;;;;8466102;28;19923;-44
2022/06/27 03:45:20;;;;;;;;;;;26.30;44.60;;;;;;8466238;28;19915;-44
2022/06/27 03:50:21;;;;;;;;;;;26.30;44.60;;;;;;8465541;28;19953;-45
2022/06/27 03:53:51;;;;;;;;;;;26.30;44.60;;;;;;8448080;28;20276;-45
2022/06/27 03:57:56;;;;;;;;;;;26.30;44.60;;;;;;8465706;28;19991;-44
2022/06/27 04:01:57;;;;;;;;;;;26.30;44.60;;;;;;8464927;28;19920;-45
2022/06/27 04:05:57;;;;;;;;;;;26.30;44.60;;;;;;8464610;28;19994;-45
2022/06/27 04:09:58;;;;;;;;;;;26.30;44.60;;;;;;8465361;28;19918;-43
2022/06/27 04:13:58;;;;;;;;;;;26.30;44.60;;;;;;8463963;28;19908;-43
2022/06/27 04:17:59;;;;;;;;;;;26.30;44.60;;;;;;8465148;28;19918;-43
2022/06/27 04:21:59;;;;;;;;;;;26.30;44.60;;;;;;8465050;28;19926;-44
2022/06/27 04:26:00;;;;;;;;;;;26.30;44.70;;;;;;8464541;28;19998;-44
2022/06/27 04:30:00;;;;;;;;;;;26.20;44.60;;;;;;8464568;28;19911;-44
2022/06/27 04:34:00;;;;;;;;;;;26.20;44.60;;;;;;8465039;28;20014;-44
2022/06/27 04:38:01;;;;;;;;;;;26.20;44.60;;;;;;8464041;28;19912;-44
2022/06/27 04:42:02;;;;;;;;;;;26.20;44.60;;;;;;8464240;28;19962;-44
2022/06/27 04:46:03;;;;;;;;;;;26.20;44.60;;;;;;8464379;28;19961;-45
2022/06/27 04:50:03;;;;;;;;;;;26.20;44.60;;;;;;8463668;28;19911;-43
2022/06/27 04:54:04;;;;;;;;;;;26.20;44.60;;;;;;8464158;28;19917;-44
2022/06/27 04:58:05;;;;;;;;;;;26.20;44.60;;;;;;8463936;28;19934;-44
2022/06/27 05:02:05;;;;;;;;;;;26.20;44.60;;;;;;8463269;28;19927;-44
2022/06/27 05:06:06;;;;;;;;;;;26.20;44.60;;;;;;8463968;28;19912;-44
2022/06/27 05:10:07;;;;;;;;;;;26.20;44.60;;;;;;8463630;28;19972;-44
2022/06/27 05:14:08;;;;;;;;;;;26.20;44.60;;;;;;8463369;28;19911;-44
2022/06/27 05:18:09;;;;;;;;;;;26.20;44.60;;;;;;8463473;28;20276;-44
2022/06/27 05:22:10;;;;;;;;;;;26.20;44.60;;;;;;8463383;28;19919;-45
2022/06/27 05:26:10;;;;;;;;;;;26.20;44.70;;;;;;8468232;28;19969;-42
2022/06/27 05:30:11;;;;;;;;;;;26.20;44.60;;;;;;8474586;28;20325;-45
2022/06/27 05:34:11;;;;;;;;;;;26.20;44.70;;;;;;8475012;28;19911;-45
2022/06/27 05:38:12;;;;;;;;;;;26.20;44.60;;;;;;8474009;28;20004;-45
2022/06/27 05:42:12;;;;;;;;;;;26.20;44.70;;;;;;8474562;28;20007;-42
2022/06/27 05:46:13;;;;;;;;;;;26.20;44.70;;;;;;8474355;28;20023;-43
2022/06/27 05:50:13;;;;;;;;;;;26.20;44.70;;;;;;8473681;28;19920;-44
2022/06/27 05:54:14;;;;;;;;;;;26.20;44.60;;;;;;8474765;28;20299;-44
2022/06/27 05:58:14;;;;;;;;;;;26.20;44.70;;;;;;8474197;28;19915;-45
2022/06/27 06:02:15;;;;;;;;;;;26.20;44.60;;;;;;8473466;28;19919;-45
2022/06/27 06:06:16;;;;;;;;;;;26.20;44.70;;;;;;8473823;28;20253;-45
2022/06/27 06:10:17;;;;;;;;;;;26.20;44.70;;;;;;8473637;28;19911;-44
2022/06/27 06:14:18;;;;;;;;;;;26.20;44.70;;;;;;8474214;28;19915;-44
2022/06/27 06:18:18;;;;;;;;;;;26.20;44.70;;;;;;8473926;28;19911;-44
2022/06/27 06:22:18;;;;;;;;;;;26.20;44.70;;;;;;8473204;28;20460;-43
2022/06/27 06:26:19;;;;;;;;;;;26.20;44.70;;;;;;8473856;28;20458;-45
2022/06/27 06:30:22;;;;;;;;;;;26.10;44.60;;;;;;8473798;28;19912;-44
2022/06/27 06:34:23;;;;;;;;;;;26.20;44.70;;;;;;8473408;28;19954;-44
2022/06/27 06:38:23;;;;;;;;;;;26.10;44.60;;;;;;8469107;28;20320;-44
2022/06/27 06:42:24;;;;;;;;;;;26.20;44.70;;;;;;8468181;28;19924;-44
2022/06/27 06:46:25;;;;;;;;;;;26.20;44.70;;;;;;8467549;28;19961;-45
2022/06/27 06:50:26;;;;;;;;;;;26.20;44.90;;;;;;8467974;28;19912;-44
2022/06/27 06:54:31;;;;;;;;;;;26.20;44.70;;;;;;8468197;28;19965;-44
2022/06/27 06:58:31;;;;;;;;;;;26.20;44.70;;;;;;8467308;28;20021;-44
2022/06/27 07:02:32;;;;;;;;;;;26.20;44.70;;;;;;8467529;28;19919;-44
2022/06/27 07:06:33;;;;;;;;;;;26.20;44.70;;;;;;8466188;28;19998;-44
2022/06/27 07:10:34;;;;;;;;;;;26.20;44.70;;;;;;8466870;28;19919;-46
2022/06/27 07:14:34;;;;;;;;;;;26.20;44.70;;;;;;8467554;28;20385;-45
2022/06/27 07:18:37;;;;;;;;;;;26.20;44.70;;;;;;8467285;28;19937;-45
2022/06/27 07:22:39;;;;;;;;;;;26.20;44.70;;;;;;8466250;28;19962;-46
2022/06/27 07:26:39;;;;;;;;;;;26.20;44.70;;;;;;8466862;28;20007;-45
2022/06/27 07:30:40;;;;;;;;;;;26.20;44.70;;;;;;8466632;28;20072;-45
2022/06/27 07:34:41;;;;;;;;;;;26.20;44.70;;;;;;8466171;28;20309;-45
2022/06/27 07:38:46;;;;;;;;;;;26.20;44.70;;;;;;8466258;28;19918;-44
2022/06/27 07:42:47;;;;;;;;;;;26.20;44.70;;;;;;8466080;28;19921;-44
2022/06/27 07:46:48;;;;;;;;;;;26.20;44.70;;;;;;8465573;28;19919;-44
2022/06/27 07:50:48;;;;;;;;;;;26.20;44.70;;;;;;8454619;28;20258;-44
2022/06/27 07:54:49;;;;;;;;;;;26.20;44.70;;;;;;8455051;27;20357;-44
2022/06/27 07:58:50;;;;;;;;;;;26.20;44.70;;;;;;8458299;27;19972;-44
2022/06/27 08:02:50;;;;;;;;;;;26.20;44.70;;;;;;8458456;28;19923;-45
2022/06/27 08:06:51;;;;;;;;;;;26.20;44.70;;;;;;8465045;28;19912;-44
2022/06/27 08:10:52;;;;;;;;;;;26.20;44.70;;;;;;8465014;28;19990;-44
2022/06/27 08:14:52;;;;;;;;;;;26.20;44.70;;;;;;8465202;28;20441;-44
2022/06/27 08:18:53;;;;;;;;;;;26.20;44.70;;;;;;8465134;28;20280;-44
2022/06/27 08:22:53;;;;;;;;;;;26.20;44.70;;;;;;8464194;28;19920;-44
2022/06/27 08:26:54;;;;;;;;;;;26.20;44.70;;;;;;8457037;28;19920;-44
2022/06/27 08:30:56;;;;;;;;;;;26.30;44.70;;;;;;8431282;28;20288;-43
2022/06/27 08:34:58;;;;;;;;;;;26.30;44.70;;;;;;8430965;28;19912;-43
2022/06/27 08:38:59;;;;;;;;;;;26.30;45.30;;;;;;8431194;28;19912;-43
2022/06/27 08:43:00;;;;;;;;;;;26.30;44.70;;;;;;8430506;28;20288;-44
2022/06/27 08:47:03;;;;;;;;;;;26.30;44.70;;;;;;8430130;28;20380;-44
2022/06/27 08:51:05;;;;;;;;;;;26.30;44.70;;;;;;8430786;28;19912;-43
2022/06/27 08:55:08;;;;;;;;;;;26.30;44.70;;;;;;8429864;28;19912;-44
2022/06/27 08:59:09;;;;;;;;;;;26.30;44.60;;;;;;8430003;28;20053;-43
2022/06/27 09:03:10;;;;;;;;;;;26.30;44.70;;;;;;8429435;28;19973;-43
2022/06/27 09:07:10;;;;;;;;;;;26.30;44.60;;;;;;8429869;28;20424;-43
2022/06/27 09:11:25;;;;;;;;;;;26.40;44.70;;;;;;8429548;28;20172;-43
2022/06/27 09:15:29;;;;;;;;;;;26.40;44.70;;;;;;8455522;28;19961;-43
2022/06/27 09:19:48;;;;;;;;;;;26.40;44.70;;;;;;8435969;28;19908;-44
2022/06/27 09:23:54;;;;;;;;;;;26.40;44.70;;;;;;8429657;28;19939;-44
2022/06/27 09:27:55;;;;;;;;;;;26.40;44.70;;;;;;8462372;28;19920;-43
2022/06/27 09:31:55;;;;;;;;;;;26.40;44.60;;;;;;8409314;28;19911;-45
2022/06/27 09:35:57;;;;;;;;;;;26.40;44.60;;;;;;8463468;28;20276;-42
2022/06/27 09:39:58;;;;;;;;;;;26.40;44.60;;;;;;8440582;28;19912;-43
2022/06/27 09:44:04;;;;;;;;;;;26.40;44.60;;;;;;8449803;28;19920;-44
2022/06/27 09:48:06;;;;;;;;;;;26.40;44.60;;;;;;8462779;28;20287;-43
2022/06/27 09:52:08;;;;;;;;;;;26.40;44.60;;;;;;8462700;28;19965;-43
2022/06/27 09:56:10;;;;;;;;;;;26.40;44.60;;;;;;8462254;28;20021;-43
2022/06/27 10:00:11;;;;;;;;;;;26.40;44.70;;;;;;8462697;28;20310;-43
2022/06/27 10:04:12;;;;;;;;;;;26.40;44.60;;;;;;8462401;28;19954;-43
2022/06/27 10:08:13;;;;;;;;;;;26.40;44.70;;;;;;8462009;28;19912;-43
2022/06/27 10:12:24;;;;;;;;;;;26.40;44.70;;;;;;8446365;28;19995;-42
2022/06/27 10:16:24;;;;;;;;;;;26.40;44.70;;;;;;8468735;28;19981;-43
2022/06/27 10:20:31;;;;;;;;;;;26.50;44.70;;;;;;8468984;28;19957;-43
2022/06/27 10:24:32;;;;;;;;;;;26.50;44.70;;;;;;8468961;28;20364;-43
2022/06/27 10:28:35;;;;;;;;;;;26.50;44.70;;;;;;8468017;28;19915;-43
2022/06/27 10:32:44;;;;;;;;;;;26.50;44.70;;;;;;8468706;28;19916;-44
2022/06/27 10:36:44;;;;;;;;;;;26.50;44.70;;;;;;8468729;28;19912;-44
2022/06/27 10:40:45;;;;;;;;;;;26.50;44.70;;;;;;8467505;28;20296;-43
2022/06/27 10:44:45;;;;;;;;;;;26.50;44.60;;;;;;8468262;28;20327;-43
2022/06/27 10:48:46;;;;;;;;;;;26.60;45.20;;;;;;8451315;28;19912;-43
2022/06/27 10:52:47;;;;;;;;;;;26.60;44.60;;;;;;8466994;28;19955;-44
2022/06/27 10:56:51;;;;;;;;;;;26.60;44.50;;;;;;8468127;28;19907;-43
2022/06/27 11:00:52;;;;;;;;;;;26.70;44.60;;;;;;8434615;28;19931;-44
2022/06/27 11:04:53;;;;;;;;;;;26.70;44.50;;;;;;8433052;28;19923;-43
2022/06/27 11:08:55;;;;;;;;;;;26.70;44.50;;;;;;8433114;28;19912;-43
2022/06/27 11:12:55;;;;;;;;;;;26.70;44.40;;;;;;8433135;28;19994;-44
2022/06/27 11:16:55;;;;;;;;;;;26.80;44.40;;;;;;8432614;28;19908;-43
2022/06/27 11:20:57;;;;;;;;;;;26.70;44.30;;;;;;8433196;28;19969;-43
2022/06/27 11:24:58;;;;;;;;;;;26.80;44.30;;;;;;8432422;28;19923;-44
2022/06/27 11:33:20;;;;;;;;;;;26.80;44.20;;;;;;8433038;28;19958;-44
2022/06/27 11:37:23;;;;;;;;;;;26.80;44.10;;;;;;8432225;28;19987;-45
2022/06/27 11:41:26;;;;;;;;;;;26.90;44.20;;;;;;8432818;28;19916;-44
2022/06/27 11:45:37;;;;;;;;;;;26.90;44.20;;;;;;8432285;28;19912;-44
2022/06/27 11:49:38;;;;;;;;;;;26.90;44.10;;;;;;8431723;28;19965;-44
2022/06/27 11:53:50;;;;;;;;;;;26.90;44.10;;;;;;8432380;28;19940;-44
2022/06/27 11:57:53;;;;;;;;;;;26.90;44.10;;;;;;8431884;28;19943;-45
2022/06/27 12:01:58;;;;;;;;;;;26.90;44.00;;;;;;8431532;28;19920;-44
2022/06/27 12:06:12;;;;;;;;;;;27.00;44.10;;;;;;8431665;28;19957;-44
2022/06/27 12:10:13;;;;;;;;;;;27.00;44.00;;;;;;8431611;28;19959;-44
2022/06/27 12:14:14;;;;;;;;;;;27.00;44.00;;;;;;8431162;28;19920;-44
2022/06/27 12:18:15;;;;;;;;;;;27.00;44.00;;;;;;8431236;28;19962;-45
2022/06/27 12:22:18;;;;;;;;;;;27.00;44.00;;;;;;8431354;28;19916;-44
2022/06/27 12:26:19;;;;;;;;;;;27.00;44.00;;;;;;8430871;28;19916;-45
2022/06/27 12:30:19;;;;;;;;;;;27.10;44.00;;;;;;8431087;28;20417;-45
2022/06/27 12:34:20;;;;;;;;;;;27.10;43.90;;;;;;8429874;28;19912;-45
2022/06/27 12:38:21;;;;;;;;;;;27.10;43.90;;;;;;8430299;28;19915;-45
2022/06/27 12:42:22;;;;;;;;;;;27.10;43.80;;;;;;8430769;28;19920;-45
2022/06/27 12:46:23;;;;;;;;;;;27.10;43.80;;;;;;8430006;28;19957;-43
2022/06/27 12:50:24;;;;;;;;;;;27.10;43.70;;;;;;8430582;28;19918;-43
2022/06/27 12:54:24;;;;;;;;;;;27.10;43.70;;;;;;8430320;28;20380;-43
2022/06/27 12:58:25;;;;;;;;;;;27.10;43.70;;;;;;8429708;28;19915;-43
2022/06/27 13:02:26;;;;;;;;;;;27.10;43.70;;;;;;8429199;28;19916;-45
2022/06/27 13:06:26;;;;;;;;;;;27.10;43.80;;;;;;8429920;28;19952;-44
2022/06/27 13:10:27;;;;;;;;;;;27.10;43.80;;;;;;8429591;28;19908;-48
2022/06/27 13:14:27;;;;;;;;;;;27.10;43.80;;;;;;8429838;28;20304;-43
2022/06/27 13:18:27;;;;;;;;;;;27.10;43.80;;;;;;8413308;28;19951;-44
2022/06/27 13:22:28;;;;;;;;;;;27.00;43.80;;;;;;8429100;28;19922;-45
2022/06/27 13:26:28;;;;;;;;;;;27.10;43.80;;;;;;8429766;28;19915;-44
2022/06/27 13:30:29;;;;;;;;;;;27.00;43.80;;;;;;8429768;28;19995;-45
2022/06/27 13:34:30;;;;;;;;;;;27.00;43.80;;;;;;8429149;28;19944;-43
2022/06/27 13:38:31;;;;;;;;;;;27.00;43.80;;;;;;8429911;28;19912;-43
2022/06/27 13:42:33;;;;;;;;;;;27.00;43.80;;;;;;8429578;28;20007;-43
2022/06/27 13:46:33;;;;;;;;;;;27.00;43.80;;;;;;8430664;28;19995;-44
2022/06/27 13:50:37;;;;;;;;;;;27.00;43.80;;;;;;8435915;28;19912;-43
2022/06/27 13:54:37;;;;;;;;;;;27.00;43.80;;;;;;8435651;28;19912;-43
2022/06/27 13:58:39;;;;;;;;;;;27.00;43.80;;;;;;8435412;28;19935;-44
2022/06/27 14:02:39;;;;;;;;;;;27.00;43.80;;;;;;8436102;28;20365;-45
2022/06/27 14:11:02;;;;;;;;;;;27.10;43.80;;;;;;8435973;28;19958;-43
2022/06/27 14:15:03;;;;;;;;;;;27.10;43.80;;;;;;8435506;28;20326;-44
2022/06/27 14:19:04;;;;;;;;;;;27.10;43.80;;;;;;8435197;28;20007;-44
2022/06/27 14:23:05;;;;;;;;;;;27.10;43.80;;;;;;8434700;28;19916;-44
2022/06/27 14:27:05;;;;;;;;;;;27.00;43.70;;;;;;8461380;28;19920;-43
2022/06/27 14:31:06;;;;;;;;;;;27.00;43.70;;;;;;8468519;28;19908;-43
2022/06/27 14:35:07;;;;;;;;;;;27.00;43.70;;;;;;8468000;28;20284;-44
2022/06/27 14:39:07;;;;;;;;;;;27.00;43.70;;;;;;8468294;28;19960;-44
2022/06/27 14:43:07;;;;;;;;;;;27.00;43.70;;;;;;8468485;28;19927;-44
2022/06/27 14:47:09;;;;;;;;;;;27.00;43.80;;;;;;8467639;28;19965;-44
2022/06/27 14:51:11;;;;;;;;;;;27.00;43.80;;;;;;8468137;28;19911;-44
2022/06/27 14:55:12;;;;;;;;;;;27.00;43.80;;;;;;8467845;28;19908;-44
2022/06/27 14:59:12;;;;;;;;;;;27.00;43.80;;;;;;8466295;28;20387;-43
2022/06/27 15:03:13;;;;;;;;;;;27.00;43.80;;;;;;8467683;28;19915;-44
2022/06/27 15:07:13;;;;;;;;;;;26.90;43.80;;;;;;8467297;28;19994;-45
2022/06/27 15:15:33;;;;;;;;;;;26.90;43.80;;;;;;8472022;28;20284;-44
2022/06/27 15:19:33;;;;;;;;;;;26.90;43.80;;;;;;8462680;28;19928;-44
2022/06/27 15:23:34;;;;;;;;;;;26.90;43.90;;;;;;8433916;28;19916;-43
2022/06/27 15:27:34;;;;;;;;;;;26.90;43.90;;;;;;8465476;28;19927;-43
2022/06/27 15:31:35;;;;;;;;;;;26.90;43.90;;;;;;8466243;28;19938;-44
2022/06/27 15:35:35;;;;;;;;;;;26.80;44.00;;;;;;8466711;28;19915;-44
2022/06/27 15:39:37;;;;;;;;;;;26.80;44.00;;;;;;8466266;28;19912;-44
2022/06/27 15:43:37;;;;;;;;;;;26.80;44.00;;;;;;8465860;28;19916;-44
2022/06/27 15:47:38;;;;;;;;;;;26.80;44.00;;;;;;8466103;28;19954;-43
2022/06/27 15:51:38;;;;;;;;;;;26.80;44.10;;;;;;8465888;28;19912;-45
2022/06/27 15:55:39;;;;;;;;;;;26.80;44.10;;;;;;8465277;28;19955;-44
2022/06/27 15:59:39;;;;;;;;;;;26.80;44.20;;;;;;8465550;28;20277;-43
2022/06/27 16:03:40;;;;;;;;;;;26.80;44.20;;;;;;8448785;28;20254;-45
2022/06/27 16:07:40;;;;;;;;;;;26.80;44.20;;;;;;8461950;28;20006;-44
2022/06/27 16:11:41;;;;;;;;;;;26.80;44.20;;;;;;8465369;28;19912;-43
2022/06/27 16:15:41;;;;;;;;;;;26.80;44.10;;;;;;8465255;28;20383;-44
2022/06/27 16:19:42;;;;;;;;;;;26.80;44.20;;;;;;8464511;28;19964;-43
2022/06/27 16:23:42;;;;;;;;;;;26.80;44.10;;;;;;8465295;28;19929;-44
2022/06/27 16:27:43;;;;;;;;;;;26.80;44.20;;;;;;8464901;28;19922;-44
2022/06/27 16:31:44;;;;;;;;;;;26.80;44.30;;;;;;8464225;28;19943;-43
2022/06/27 16:35:45;;;;;;;;;;;26.80;44.20;;;;;;8464529;28;19919;-44
2022/06/27 16:39:45;;;;;;;;;;;26.80;44.20;;;;;;8464348;28;20042;-44
2022/06/27 16:43:46;;;;;;;;;;;26.80;44.20;;;;;;8463456;28;19920;-43
2022/06/27 16:47:47;;;;;;;;;;;26.80;44.20;;;;;;8463531;28;19998;-43
2022/06/27 16:51:47;;;;;;;;;;;26.80;44.20;;;;;;8463701;28;19916;-44
2022/06/27 16:55:47;;;;;;;;;;;26.80;44.20;;;;;;8463300;28;19912;-43
2022/06/27 16:59:48;;;;;;;;;;;26.80;44.20;;;;;;8463853;28;20268;-44
2022/06/27 17:03:48;;;;;;;;;;;26.80;44.20;;;;;;8464007;28;19954;-44
2022/06/27 17:07:49;;;;;;;;;;;26.80;44.30;;;;;;8463074;28;19919;-44
2022/06/27 17:11:50;;;;;;;;;;;26.80;44.30;;;;;;8463353;28;19919;-44
2022/06/27 17:15:50;;;;;;;;;;;26.80;44.20;;;;;;8463399;28;19908;-46
2022/06/27 17:19:50;;;;;;;;;;;26.80;44.30;;;;;;8460770;28;20287;-45
2022/06/27 17:23:51;;;;;;;;;;;26.80;44.30;;;;;;8459310;28;19919;-44
2022/06/27 17:27:53;;;;;;;;;;;26.80;44.30;;;;;;8463128;28;19916;-45
2022/06/27 17:31:54;;;;;;;;;;;26.70;44.20;;;;;;8462508;28;20361;-44
2022/06/27 17:35:54;;;;;;;;;;;26.70;44.30;;;;;;8462643;28;20003;-44
2022/06/27 17:39:55;;;;;;;;;;;26.70;44.30;;;;;;8462849;28;20014;-47
2022/06/27 17:43:56;;;;;;;;;;;26.70;44.30;;;;;;8462527;28;19928;-44
2022/06/27 17:47:56;;;;;;;;;;;26.70;44.40;;;;;;8462487;28;19912;-44
2022/06/27 17:51:57;;;;;;;;;;;26.70;44.40;;;;;;8462607;28;20022;-44
2022/06/27 17:55:57;;;;;;;;;;;26.70;44.40;;;;;;8462055;28;20360;-43
2022/06/27 17:59:58;;;;;;;;;;;26.70;44.40;;;;;;8474110;28;19907;-43
2022/06/27 18:03:58;;;;;;;;;;;26.70;44.40;;;;;;8462576;28;19920;-46
2022/06/27 18:07:59;;;;;;;;;;;26.70;44.40;;;;;;8459670;28;19912;-44
2022/06/27 18:12:05;;;;;;;;;;;26.70;44.40;;;;;;8451993;28;19911;-43
2022/06/27 18:16:05;;;;;;;;;;;26.70;44.40;;;;;;8462510;28;19918;-44
2022/06/27 18:20:09;;;;;;;;;;;26.60;44.40;;;;;;8461615;28;19919;-44
2022/06/27 18:24:09;;;;;;;;;;;26.70;44.50;;;;;;8462569;28;19943;-44
2022/06/27 18:28:12;;;;;;;;;;;26.60;44.40;;;;;;8462223;28;19912;-44
2022/06/27 18:32:12;;;;;;;;;;;26.70;44.50;;;;;;8462191;28;19986;-43
2022/06/27 18:36:13;;;;;;;;;;;26.60;44.50;;;;;;8468112;28;19994;-43
2022/06/27 18:40:13;;;;;;;;;;;26.60;44.50;;;;;;8468342;28;19916;-44
2022/06/27 18:44:14;;;;;;;;;;;26.60;44.50;;;;;;8467853;28;19927;-44
2022/06/27 18:48:16;;;;;;;;;;;26.60;44.50;;;;;;8467845;28;20068;-43
2022/06/27 18:52:17;;;;;;;;;;;26.60;44.50;;;;;;8467335;28;20406;-43
2022/06/27 18:56:17;;;;;;;;;;;26.60;44.50;;;;;;8467918;28;19911;-43
2022/06/27 19:00:18;;;;;;;;;;;26.60;44.50;;;;;;8467556;28;20368;-44
2022/06/27 19:04:18;;;;;;;;;;;26.60;44.60;;;;;;8462390;28;19979;-45
2022/06/27 19:08:19;;;;;;;;;;;26.50;44.50;;;;;;8459350;28;19911;-43
2022/06/27 19:12:19;;;;;;;;;;;26.50;44.50;;;;;;8467085;28;19912;-43
2022/06/27 19:16:21;;;;;;;;;;;26.50;44.50;;;;;;8466490;28;19978;-43
2022/06/27 19:20:22;;;;;;;;;;;26.50;44.50;;;;;;8465338;28;19952;-41
2022/06/27 19:24:22;;;;;;;;;;;26.50;44.60;;;;;;8463406;28;19966;-44
2022/06/27 19:28:23;;;;;;;;;;;26.50;44.60;;;;;;8466335;28;19981;-46
2022/06/27 19:32:23;;;;;;;;;;;26.50;44.60;;;;;;8466568;28;19912;-45
2022/06/27 19:36:24;;;;;;;;;;;26.50;44.60;;;;;;8466351;28;20432;-44
2022/06/27 19:40:25;;;;;;;;;;;26.50;44.60;;;;;;8466080;28;19907;-44
2022/06/27 19:44:25;;;;;;;;;;;26.50;44.60;;;;;;8465307;28;19928;-44
2022/06/27 19:48:27;;;;;;;;;;;26.50;44.60;;;;;;8466333;28;19953;-45
2022/06/27 19:52:28;;;;;;;;;;;26.50;44.60;;;;;;8465582;28;19927;-44
2022/06/27 19:56:29;;;;;;;;;;;26.50;44.60;;;;;;8466055;28;19912;-44
2022/06/27 20:00:30;;;;;;;;;;;26.50;44.60;;;;;;8466064;28;19997;-44
2022/06/27 20:04:31;;;;;;;;;;;26.40;44.60;;;;;;8464971;28;20323;-44
2022/06/27 20:08:32;;;;;;;;;;;26.40;44.80;;;;;;8466059;28;19911;-44
2022/06/27 20:12:33;;;;;;;;;;;26.50;44.60;;;;;;8465273;28;19951;-44
2022/06/27 20:16:34;;;;;;;;;;;26.40;44.50;;;;;;8464775;28;20284;-46
2022/06/27 20:20:34;;;;;;;;;;;26.40;44.60;;;;;;8465269;28;19908;-44
2022/06/27 20:24:35;;;;;;;;;;;26.40;44.60;;;;;;8464933;28;20317;-43
2022/06/27 20:28:35;;;;;;;;;;;26.40;44.60;;;;;;8464478;28;19998;-44
2022/06/27 20:32:35;;;;;;;;;;;26.40;44.60;;;;;;8464600;28;20753;-44
2022/06/27 20:36:36;;;;;;;;;;;26.40;44.70;;;;;;8464657;28;19911;-44
2022/06/27 20:40:36;;;;;;;;;;;26.40;44.60;;;;;;8445814;28;20379;-44
2022/06/27 20:44:38;;;;;;;;;;;26.40;44.70;;;;;;8464244;28;19927;-44
2022/06/27 20:48:38;;;;;;;;;;;26.30;44.60;;;;;;8464227;28;19912;-43
2022/06/27 20:52:39;;;;;;;;;;;26.30;44.60;;;;;;8463588;28;19969;-44
2022/06/27 20:56:40;;;;;;;;;;;26.30;44.70;;;;;;8463372;28;19959;-44
2022/06/27 21:00:40;;;;;;;;;;;26.30;44.70;;;;;;8464072;28;19912;-44
2022/06/27 21:04:41;;;;;;;;;;;26.30;44.70;;;;;;8463261;28;19919;-45
2022/06/27 21:13:00;;;;;;;;;;;26.30;44.70;;;;;;8463884;28;20385;-45
2022/06/27 21:17:01;;;;;;;;;;;26.30;44.70;;;;;;8463162;28;19912;-43
2022/06/27 21:21:02;;;;;;;;;;;26.30;44.70;;;;;;8462716;28;19915;-44
2022/06/27 21:25:02;;;;;;;;;;;26.30;44.70;;;;;;8463433;28;20394;-44
2022/06/27 21:29:03;;;;;;;;;;;26.30;44.70;;;;;;8462835;28;20009;-44
2022/06/27 21:33:03;;;;;;;;;;;26.30;44.70;;;;;;8463407;28;19916;-44
2022/06/27 21:37:04;;;;;;;;;;;26.30;44.70;;;;;;8463313;28;19912;-43
2022/06/27 21:41:04;;;;;;;;;;;26.20;44.70;;;;;;8462910;28;19908;-44
2022/06/27 21:45:05;;;;;;;;;;;26.20;44.70;;;;;;8463246;28;19922;-44
2022/06/27 21:49:05;;;;;;;;;;;26.20;44.70;;;;;;8463063;28;19990;-44
2022/06/27 21:53:06;;;;;;;;;;;26.20;44.70;;;;;;8462469;28;20330;-44
2022/06/27 21:57:08;;;;;;;;;;;26.20;44.70;;;;;;8462787;28;20364;-45
2022/06/27 22:01:08;;;;;;;;;;;26.20;44.70;;;;;;8462301;28;20007;-44
2022/06/27 22:05:09;;;;;;;;;;;26.20;44.70;;;;;;8461535;28;20287;-44
2022/06/27 22:09:10;;;;;;;;;;;26.20;44.70;;;;;;8456449;28;19918;-44
2022/06/27 22:13:10;;;;;;;;;;;26.10;44.70;;;;;;8469162;28;20428;-44
2022/06/27 22:17:11;;;;;;;;;;;26.20;44.80;;;;;;8468637;28;19911;-44
2022/06/27 22:21:11;;;;;;;;;;;26.20;44.70;;;;;;8469163;28;19911;-44
2022/06/27 22:25:12;;;;;;;;;;;26.10;44.70;;;;;;8469242;28;19968;-44
2022/06/27 22:29:12;;;;;;;;;;;26.10;44.70;;;;;;8468397;28;20357;-44
2022/06/27 22:33:13;;;;;;;;;;;26.10;44.70;;;;;;8468616;28;20312;-44
2022/06/27 22:37:13;;;;;;;;;;;26.10;44.70;;;;;;8468610;28;20261;-44
2022/06/27 22:41:14;;;;;;;;;;;26.10;44.80;;;;;;8468126;28;19921;-44
2022/06/27 22:45:14;;;;;;;;;;;26.10;44.70;;;;;;8468249;28;20010;-44
2022/06/27 22:49:15;;;;;;;;;;;26.10;44.80;;;;;;8468195;28;19919;-44
2022/06/27 22:53:15;;;;;;;;;;;26.10;44.80;;;;;;8467483;28;19915;-45
2022/06/27 22:57:16;;;;;;;;;;;26.10;44.80;;;;;;8467852;28;19923;-44
2022/06/27 23:01:16;;;;;;;;;;;26.10;44.80;;;;;;8467866;28;19992;-44
2022/06/27 23:05:17;;;;;;;;;;;26.00;44.80;;;;;;8467635;28;19916;-44
2022/06/27 23:09:17;;;;;;;;;;;26.00;44.70;;;;;;8449213;28;19916;-44
2022/06/27 23:13:18;;;;;;;;;;;26.00;44.70;;;;;;8466815;28;19918;-44
2022/06/27 23:17:18;;;;;;;;;;;26.00;44.70;;;;;;8467499;28;20364;-44
2022/06/27 23:21:19;;;;;;;;;;;26.00;44.70;;;;;;8466658;28;19919;-44
2022/06/27 23:25:19;;;;;;;;;;;26.00;44.70;;;;;;8466794;28;19922;-44
2022/06/27 23:29:20;;;;;;;;;;;26.00;44.70;;;;;;8467008;28;19911;-44
2022/06/27 23:33:20;;;;;;;;;;;26.00;44.80;;;;;;8467066;28;19916;-44
2022/06/27 23:37:21;;;;;;;;;;;25.90;44.70;;;;;;8466179;28;19919;-44
2022/06/27 23:41:21;;;;;;;;;;;26.00;44.80;;;;;;8466692;28;19915;-44
2022/06/27 23:45:22;;;;;;;;;;;25.90;44.80;;;;;;8466461;28;19919;-44